createdAt,value
2023-05-06T00:00:53.109Z,6.70
2023-05-06T00:03:21.924Z,6.15
2023-05-06T00:05:50.509Z,6.15
2023-05-06T00:08:19.075Z,5.90
2023-05-06T00:10:51.471Z,6.32
2023-05-06T00:13:20.043Z,5.85
2023-05-06T00:15:50.027Z,6.68
2023-05-06T00:18:18.531Z,6.35
2023-05-06T00:20:47.086Z,6.10
2023-05-06T00:23:15.628Z,6.93
2023-05-06T00:25:44.153Z,6.70
2023-05-06T00:28:12.673Z,6.30
2023-05-06T00:30:41.419Z,5.93
2023-05-06T00:33:11.360Z,5.90
2023-05-06T00:35:42.012Z,6.40
2023-05-06T00:38:12.882Z,6.40
2023-05-06T00:40:41.341Z,6.28
2023-05-06T00:43:10.044Z,6.40
2023-05-06T00:45:39.368Z,6.78
2023-05-06T00:48:08.551Z,6.80
2023-05-06T00:50:40.743Z,6.53
2023-05-06T00:53:10.806Z,6.78
2023-05-06T00:55:40.884Z,6.68
2023-05-06T00:58:10.072Z,6.40
2023-05-06T01:00:39.081Z,6.38
2023-05-06T01:03:09.466Z,6.32
2023-05-06T01:05:56.314Z,6.90
2023-05-06T01:08:33.532Z,6.18
2023-05-06T01:11:08.502Z,6.63
2023-05-06T01:13:46.369Z,6.22
2023-05-06T01:16:16.998Z,5.45
2023-05-06T01:18:46.574Z,5.38
2023-05-06T01:21:19.887Z,5.50
2023-05-06T01:23:53.807Z,6.25
2023-05-06T01:26:22.623Z,5.25
2023-05-06T01:28:51.309Z,5.63
2023-05-06T01:31:26.713Z,5.70
2023-05-06T01:36:40.010Z,4.90
2023-05-06T01:39:17.937Z,5.15
2023-05-06T01:41:49.852Z,5.18
2023-05-06T01:44:22.360Z,5.25
2023-05-06T01:46:54.911Z,4.80
2023-05-06T01:49:26.383Z,5.30
2023-05-06T01:51:55.189Z,4.80
2023-05-06T01:54:26.417Z,5.28
2023-05-06T01:56:54.990Z,5.10
2023-05-06T01:59:23.528Z,5.10
2023-05-06T02:01:53.537Z,4.72
2023-05-06T02:04:22.268Z,4.78
2023-05-06T02:06:52.249Z,4.72
2023-05-06T02:09:21.414Z,5.40
2023-05-06T02:11:59.659Z,4.63
2023-05-06T02:14:28.169Z,4.78
2023-05-06T02:16:57.569Z,4.75
2023-05-06T02:19:26.333Z,4.72
2023-05-06T02:21:55.013Z,5.03
2023-05-06T02:24:23.576Z,4.80
2023-05-06T02:26:52.697Z,4.45
2023-05-06T02:29:22.529Z,4.60
2023-05-06T02:31:51.123Z,4.45
2023-05-06T02:34:19.634Z,5.15
2023-05-06T02:36:48.160Z,4.68
2023-05-06T02:39:17.197Z,4.60
2023-05-06T02:41:45.760Z,4.80
2023-05-06T02:44:14.255Z,4.25
2023-05-06T02:46:44.279Z,3.97
2023-05-06T02:49:13.756Z,3.92
2023-05-06T02:51:42.380Z,4.40
2023-05-06T02:54:10.965Z,4.53
2023-05-06T02:56:39.605Z,4.50
2023-05-06T02:59:08.235Z,4.30
2023-05-06T03:01:36.884Z,4.85
2023-05-06T03:04:07.184Z,4.75
2023-05-06T03:06:35.914Z,4.47
2023-05-06T03:09:05.059Z,3.65
2023-05-06T03:11:34.277Z,4.22
2023-05-06T03:14:05.829Z,3.88
2023-05-06T03:16:34.447Z,3.90
2023-05-06T03:19:04.078Z,3.85
2023-05-06T03:21:34.966Z,3.53
2023-05-06T03:24:04.683Z,3.40
2023-05-06T03:26:33.235Z,3.85
2023-05-06T03:29:01.842Z,3.67
2023-05-06T03:31:31.301Z,3.47
2023-05-06T03:34:01.373Z,3.65
2023-05-06T03:36:31.727Z,3.58
2023-05-06T03:39:01.789Z,3.90
2023-05-06T03:41:32.564Z,3.42
2023-05-06T03:44:01.733Z,3.85
2023-05-06T03:46:30.357Z,3.30
2023-05-06T03:49:00.652Z,3.35
2023-05-06T03:51:29.828Z,3.55
2023-05-06T03:53:58.586Z,3.15
2023-05-06T03:56:28.558Z,3.80
2023-05-06T03:58:58.313Z,3.30
2023-05-06T04:01:28.422Z,3.17
2023-05-06T04:03:57.071Z,3.38
2023-05-06T04:06:27.209Z,3.05
2023-05-06T04:08:55.791Z,3.08
2023-05-06T04:11:25.136Z,3.60
2023-05-06T04:13:55.219Z,3.40
2023-05-06T04:16:25.113Z,3.13
2023-05-06T04:18:57.579Z,3.25
2023-05-06T04:21:26.287Z,3.50
2023-05-06T04:24:01.262Z,3.53
2023-05-06T04:26:35.668Z,3.38
2023-05-06T04:29:05.660Z,3.42
2023-05-06T04:31:37.277Z,3.90
2023-05-06T04:34:10.869Z,3.45
2023-05-06T04:36:40.806Z,4.13
2023-05-06T04:39:26.673Z,3.80
2023-05-06T04:41:55.206Z,3.78
2023-05-06T04:44:33.954Z,4.00
2023-05-06T04:47:03.596Z,3.88
2023-05-06T04:49:33.177Z,3.45
2023-05-06T04:52:03.487Z,3.55
2023-05-06T04:54:32.826Z,4.05
2023-05-06T04:57:02.195Z,3.65
2023-05-06T04:59:32.840Z,3.40
2023-05-06T05:02:03.624Z,3.45
2023-05-06T05:04:33.830Z,3.38
2023-05-06T05:07:02.603Z,4.05
2023-05-06T05:09:33.641Z,3.28
2023-05-06T05:12:05.499Z,3.33
2023-05-06T05:14:38.889Z,3.63
2023-05-06T05:17:08.090Z,3.50
2023-05-06T05:19:36.905Z,3.70
2023-05-06T05:22:08.599Z,3.95
2023-05-06T05:24:37.194Z,3.67
2023-05-06T05:27:05.717Z,3.67
2023-05-06T05:29:34.449Z,3.63
2023-05-06T05:32:07.493Z,3.45
2023-05-06T05:34:38.637Z,3.90
2023-05-06T05:37:07.705Z,3.50
2023-05-06T05:39:36.354Z,3.95
2023-05-06T05:42:05.305Z,4.15
2023-05-06T05:44:36.460Z,3.47
2023-05-06T05:47:08.206Z,3.95
2023-05-06T05:49:37.514Z,3.78
2023-05-06T05:52:07.203Z,3.83
2023-05-06T05:54:38.381Z,3.55
2023-05-06T05:57:08.107Z,3.78
2023-05-06T05:59:37.692Z,4.43
2023-05-06T06:02:10.725Z,4.60
2023-05-06T06:04:39.212Z,4.95
2023-05-06T06:07:07.817Z,5.72
2023-05-06T06:09:40.151Z,5.25
2023-05-06T06:12:08.767Z,6.28
2023-05-06T06:14:41.240Z,6.88
2023-05-06T06:17:11.325Z,6.22
2023-05-06T06:19:39.813Z,5.53
2023-05-06T06:22:08.413Z,5.65
2023-05-06T06:24:37.524Z,5.20
2023-05-06T06:27:05.999Z,5.80
2023-05-06T06:29:34.457Z,5.88
2023-05-06T06:32:04.276Z,6.50
2023-05-06T06:34:34.263Z,6.18
2023-05-06T06:37:02.770Z,6.05
2023-05-06T06:39:31.380Z,5.82
2023-05-06T06:41:59.834Z,5.97
2023-05-06T06:44:35.564Z,5.53
2023-05-06T06:47:04.067Z,5.00
2023-05-06T06:49:33.916Z,5.45
2023-05-06T06:52:02.477Z,4.72
2023-05-06T06:54:30.957Z,4.47
2023-05-06T06:56:59.429Z,4.82
2023-05-06T06:59:27.964Z,4.93
2023-05-06T07:01:56.485Z,4.97
2023-05-06T07:04:25.842Z,4.50
2023-05-06T07:06:56.578Z,4.25
2023-05-06T07:09:25.075Z,5.38
2023-05-06T07:11:53.563Z,5.38
2023-05-06T07:14:22.060Z,5.80
2023-05-06T07:16:51.606Z,5.93
2023-05-06T07:19:21.357Z,4.32
2023-05-06T07:21:49.850Z,4.30
2023-05-06T07:24:19.765Z,4.43
2023-05-06T07:26:48.341Z,4.28
2023-05-06T07:29:16.947Z,4.03
2023-05-06T07:31:45.524Z,3.70
2023-05-06T07:34:14.037Z,4.43
2023-05-06T07:36:43.510Z,3.90
2023-05-06T07:39:13.393Z,3.33
2023-05-06T07:41:43.216Z,2.65
2023-05-06T07:44:11.832Z,2.90
2023-05-06T07:46:40.516Z,2.83
2023-05-06T07:49:09.130Z,3.70
2023-05-06T07:51:37.702Z,3.90
2023-05-06T07:54:06.311Z,4.20
2023-05-06T07:56:37.065Z,3.80
2023-05-06T07:59:07.202Z,3.88
2023-05-06T08:01:36.024Z,3.08
2023-05-06T08:04:04.587Z,3.10
2023-05-06T08:06:33.294Z,3.25
2023-05-06T08:09:01.696Z,2.90
2023-05-06T08:11:30.272Z,2.70
2023-05-06T08:13:58.674Z,2.83
2023-05-06T08:16:28.549Z,3.10
2023-05-06T08:18:57.209Z,3.00
2023-05-06T08:21:25.708Z,3.10
2023-05-06T08:23:55.313Z,3.42
2023-05-06T08:26:26.990Z,3.70
2023-05-06T08:28:57.951Z,2.63
2023-05-06T08:31:28.896Z,3.00
2023-05-06T08:33:57.763Z,3.97
2023-05-06T08:36:27.915Z,3.47
2023-05-06T08:38:57.090Z,4.57
2023-05-06T08:41:30.176Z,4.00
2023-05-06T08:44:02.229Z,3.42
2023-05-06T08:46:33.187Z,3.03
2023-05-06T08:49:02.635Z,3.65
2023-05-06T08:51:32.186Z,3.00
2023-05-06T08:54:03.606Z,3.33
2023-05-06T08:56:35.459Z,3.33
2023-05-06T08:59:09.217Z,2.50
2023-05-06T09:01:41.338Z,2.00
2023-05-06T09:04:31.044Z,2.10
2023-05-06T09:07:00.663Z,2.22
2023-05-06T09:09:29.823Z,2.33
2023-05-06T09:11:58.339Z,2.40
2023-05-06T09:14:27.247Z,2.00
2023-05-06T09:16:57.656Z,2.10
2023-05-06T09:19:26.715Z,2.47
2023-05-06T09:21:55.344Z,2.78
2023-05-06T09:24:25.005Z,2.78
2023-05-06T09:26:55.182Z,2.10
2023-05-06T09:29:23.840Z,2.10
2023-05-06T09:31:55.094Z,2.55
2023-05-06T09:34:24.915Z,2.55
2023-05-06T09:36:57.117Z,2.00
2023-05-06T09:39:26.955Z,2.78
2023-05-06T09:41:55.877Z,2.00
2023-05-06T09:44:26.100Z,2.05
2023-05-06T09:46:54.586Z,2.20
2023-05-06T09:49:24.646Z,1.80
2023-05-06T09:51:53.899Z,1.60
2023-05-06T09:54:23.230Z,1.60
2023-05-06T09:56:53.384Z,1.65
2023-05-06T09:59:22.822Z,1.40
2023-05-06T10:01:51.988Z,1.50
2023-05-06T10:04:25.460Z,1.33
2023-05-06T10:09:25.951Z,1.20
2023-05-06T10:11:55.314Z,1.23
2023-05-06T10:14:24.034Z,1.40
2023-05-06T10:16:53.834Z,1.20
2023-05-06T10:19:25.804Z,1.35
2023-05-06T10:22:04.502Z,1.20
2023-05-06T10:24:42.766Z,1.30
2023-05-06T10:27:13.339Z,1.20
2023-05-06T10:29:44.263Z,1.30
2023-05-06T10:32:13.827Z,1.20
2023-05-06T10:34:52.716Z,1.40
2023-05-06T10:37:25.915Z,1.20
2023-05-06T10:39:56.500Z,1.10
2023-05-06T10:42:27.926Z,1.05
2023-05-06T10:45:04.341Z,1.00
2023-05-06T10:48:08.696Z,1.30
2023-05-06T10:50:37.678Z,1.10
2023-05-06T10:53:07.746Z,1.50
2023-05-06T10:55:38.236Z,1.15
2023-05-06T10:58:15.066Z,1.73
2023-05-06T11:00:53.830Z,1.60
2023-05-06T11:03:25.306Z,1.42
2023-05-06T11:05:54.013Z,1.40
2023-05-06T11:08:26.055Z,1.40
2023-05-06T11:10:55.645Z,1.40
2023-05-06T11:13:30.019Z,1.13
2023-05-06T11:16:02.528Z,1.55
2023-05-06T11:18:45.121Z,1.20
2023-05-06T11:21:41.750Z,1.10
2023-05-06T11:24:13.538Z,1.30
2023-05-06T11:26:43.969Z,1.55
2023-05-06T11:29:12.606Z,1.33
2023-05-06T11:31:43.433Z,1.45
2023-05-06T11:34:14.645Z,1.55
2023-05-06T11:36:48.091Z,1.27
2023-05-06T11:39:18.118Z,1.10
2023-05-06T11:41:46.665Z,1.30
2023-05-06T11:44:25.723Z,1.25
2023-05-06T11:46:58.203Z,1.15
2023-05-06T11:49:27.977Z,1.05
2023-05-06T11:51:58.149Z,1.02
2023-05-06T11:54:28.164Z,1.20
2023-05-06T11:56:57.491Z,1.20
2023-05-06T11:59:32.716Z,1.20
2023-05-06T12:02:03.425Z,1.38
2023-05-06T12:04:39.688Z,1.33
2023-05-06T12:07:09.005Z,1.05
2023-05-06T12:09:40.632Z,1.58
2023-05-06T12:12:10.824Z,1.30
2023-05-06T12:14:40.545Z,1.40
2023-05-06T12:17:09.339Z,1.30
2023-05-06T12:19:39.528Z,1.48
2023-05-06T12:22:21.972Z,1.20
2023-05-06T12:24:51.801Z,1.27
2023-05-06T12:27:31.265Z,1.10
2023-05-06T12:30:00.564Z,1.50
2023-05-06T12:32:29.082Z,1.50
2023-05-06T12:34:58.404Z,1.20
2023-05-06T12:37:29.124Z,1.60
2023-05-06T12:39:59.662Z,1.40
2023-05-06T12:42:28.890Z,1.30
2023-05-06T12:44:57.373Z,1.30
2023-05-06T12:47:27.092Z,1.38
2023-05-06T12:49:58.125Z,1.20
2023-05-06T12:52:29.804Z,1.55
2023-05-06T12:55:02.995Z,1.40
2023-05-06T12:57:31.484Z,1.27
2023-05-06T12:59:59.939Z,1.25
2023-05-06T13:02:28.562Z,1.38
2023-05-06T13:04:57.066Z,1.20
2023-05-06T13:07:25.509Z,1.20
2023-05-06T13:09:54.044Z,1.20
2023-05-06T13:12:23.955Z,1.10
2023-05-06T13:14:52.413Z,1.20
2023-05-06T13:17:21.011Z,1.20
2023-05-06T13:19:49.539Z,1.30
2023-05-06T13:22:18.062Z,1.25
2023-05-06T13:24:46.676Z,1.30
2023-05-06T13:27:15.211Z,1.10
2023-05-06T13:29:45.063Z,1.30
2023-05-06T13:32:13.682Z,1.10
2023-05-06T13:34:42.316Z,1.10
2023-05-06T13:37:10.817Z,1.13
2023-05-06T13:39:39.263Z,1.30
2023-05-06T13:42:08.579Z,1.33
2023-05-06T13:44:37.438Z,1.30
2023-05-06T13:47:07.507Z,1.40
2023-05-06T13:49:36.034Z,1.20
2023-05-06T13:52:05.798Z,1.30
2023-05-06T13:54:36.405Z,1.00
2023-05-06T13:57:05.005Z,1.20
2023-05-06T13:59:33.458Z,1.30
2023-05-06T14:02:02.710Z,1.30
2023-05-06T14:04:35.084Z,1.00
2023-05-06T14:07:03.480Z,0.93
2023-05-06T14:09:32.069Z,1.10
2023-05-06T14:12:00.490Z,0.93
2023-05-06T14:14:28.948Z,0.80
2023-05-06T14:16:57.449Z,0.90
2023-05-06T14:19:25.985Z,1.13
2023-05-06T14:21:55.787Z,0.88
2023-05-06T14:24:24.257Z,1.10
2023-05-06T14:26:53.799Z,0.98
2023-05-06T14:29:22.350Z,1.20
2023-05-06T14:31:51.004Z,1.10
2023-05-06T14:34:19.546Z,1.00
2023-05-06T14:36:48.008Z,1.15
2023-05-06T14:39:17.829Z,1.10
2023-05-06T14:41:46.624Z,0.90
2023-05-06T14:44:15.262Z,0.90
2023-05-06T14:46:43.725Z,0.90
2023-05-06T14:49:12.188Z,1.20
2023-05-06T14:51:40.642Z,1.20
2023-05-06T14:54:09.069Z,1.17
2023-05-06T14:56:38.975Z,1.10
2023-05-06T14:59:07.590Z,1.10
2023-05-06T15:01:36.129Z,1.02
2023-05-06T15:04:04.921Z,1.17
2023-05-06T15:06:33.450Z,1.10
2023-05-06T15:09:04.762Z,1.15
2023-05-06T15:11:33.449Z,1.00
2023-05-06T15:14:11.855Z,1.17
2023-05-06T15:16:41.111Z,1.02
2023-05-06T15:19:09.593Z,0.98
2023-05-06T15:21:40.602Z,1.10
2023-05-06T15:24:09.732Z,1.25
2023-05-06T15:26:38.222Z,1.20
2023-05-06T15:29:08.197Z,1.30
2023-05-06T15:31:39.190Z,1.20
2023-05-06T15:34:07.946Z,1.20
2023-05-06T15:36:36.541Z,1.02
2023-05-06T15:39:05.611Z,1.20
2023-05-06T15:41:35.382Z,1.20
2023-05-06T15:44:06.149Z,1.38
2023-05-06T15:46:36.474Z,1.20
2023-05-06T15:51:36.626Z,1.23
2023-05-06T15:54:05.978Z,1.20
2023-05-06T15:56:40.731Z,1.10
2023-05-06T15:59:12.139Z,1.10
2023-05-06T16:02:24.830Z,1.23
2023-05-06T16:04:31.311Z,1.08
2023-05-06T16:06:59.997Z,1.10
2023-05-06T16:09:28.612Z,0.98
2023-05-06T16:11:57.261Z,1.10
2023-05-06T16:14:25.708Z,1.10
2023-05-06T16:16:58.537Z,0.90
2023-05-06T16:19:27.184Z,1.00
2023-05-06T16:21:56.723Z,0.93
2023-05-06T16:24:25.454Z,0.85
2023-05-06T16:26:56.071Z,0.90
2023-05-06T16:29:24.824Z,1.00
2023-05-06T16:31:53.322Z,0.90
2023-05-06T16:34:23.358Z,1.05
2023-05-06T16:36:52.387Z,1.08
2023-05-06T16:39:20.964Z,0.90
2023-05-06T16:41:49.454Z,0.93
2023-05-06T16:44:18.022Z,1.00
2023-05-06T16:46:46.568Z,1.10
2023-05-06T16:49:15.323Z,1.00
2023-05-06T16:51:45.291Z,1.00
2023-05-06T16:54:13.789Z,1.10
2023-05-06T16:56:51.396Z,0.93
2023-05-06T16:59:22.465Z,1.02
2023-05-06T17:01:51.538Z,0.90
2023-05-06T17:04:20.239Z,1.00
2023-05-06T17:06:50.844Z,1.00
2023-05-06T17:09:19.914Z,1.00
2023-05-06T17:11:48.438Z,1.08
2023-05-06T17:14:16.896Z,1.10
2023-05-06T17:16:45.463Z,1.20
2023-05-06T17:19:14.096Z,1.20
2023-05-06T17:21:43.598Z,1.20
2023-05-06T17:24:13.485Z,1.10
2023-05-06T17:26:42.007Z,1.05
2023-05-06T17:29:10.443Z,1.13
2023-05-06T17:31:38.911Z,1.00
2023-05-06T17:34:07.490Z,1.10
2023-05-06T17:36:35.973Z,0.95
2023-05-06T17:39:05.668Z,1.10
2023-05-06T17:41:35.496Z,1.05
2023-05-06T17:44:03.952Z,1.00
2023-05-06T17:46:33.344Z,1.20
2023-05-06T17:49:01.946Z,1.23
2023-05-06T17:51:30.431Z,1.25
2023-05-06T17:54:01.572Z,1.33
2023-05-06T17:56:30.029Z,1.20
2023-05-06T17:59:02.606Z,1.10
2023-05-06T18:01:31.265Z,1.20
2023-05-06T18:03:59.960Z,1.25
2023-05-06T18:06:28.809Z,1.27
2023-05-06T18:08:57.269Z,1.30
2023-05-06T18:11:25.878Z,1.20
2023-05-06T18:13:54.425Z,1.38
2023-05-06T18:16:24.323Z,1.25
2023-05-06T18:18:52.838Z,1.20
2023-05-06T18:21:21.479Z,1.20
2023-05-06T18:23:51.667Z,1.30
2023-05-06T18:26:39.759Z,1.15
2023-05-06T18:29:12.296Z,1.17
2023-05-06T18:31:42.331Z,1.10
2023-05-06T18:34:10.950Z,1.30
2023-05-06T18:36:39.413Z,1.10
2023-05-06T18:39:08.057Z,1.30
2023-05-06T18:41:36.556Z,1.20
2023-05-06T18:44:05.812Z,1.17
2023-05-06T18:46:34.695Z,1.15
2023-05-06T18:49:04.693Z,1.35
2023-05-06T18:51:33.190Z,1.52
2023-05-06T18:54:01.664Z,1.27
2023-05-06T18:56:30.283Z,1.35
2023-05-06T18:58:58.788Z,1.13
2023-05-06T19:01:27.424Z,1.20
2023-05-06T19:09:43.157Z,1.20
2023-05-06T19:12:13.355Z,1.40
2023-05-06T19:14:42.086Z,1.30
2023-05-06T19:17:11.352Z,1.15
2023-05-06T19:19:40.683Z,1.20
2023-05-06T19:22:09.223Z,1.30
2023-05-06T19:24:37.746Z,1.23
2023-05-06T19:27:06.245Z,1.20
2023-05-06T19:29:36.245Z,1.17
2023-05-06T19:32:04.796Z,1.45
2023-05-06T19:34:33.285Z,1.40
2023-05-06T19:37:01.900Z,1.42
2023-05-06T19:39:30.393Z,1.33
2023-05-06T19:41:58.805Z,1.48
2023-05-06T19:44:27.292Z,1.30
2023-05-06T19:46:57.177Z,1.25
2023-05-06T19:49:25.756Z,1.15
2023-05-06T19:51:54.386Z,1.20
2023-05-06T19:54:22.853Z,1.30
2023-05-06T19:56:53.640Z,1.30
2023-05-06T19:59:22.108Z,1.30
2023-05-06T20:01:50.756Z,1.50
2023-05-06T20:04:20.520Z,1.40
2023-05-06T20:06:48.939Z,1.50
2023-05-06T20:09:17.312Z,1.40
2023-05-06T20:11:47.124Z,1.35
2023-05-06T20:14:15.501Z,1.20
2023-05-06T20:16:46.472Z,1.20
2023-05-06T20:19:14.960Z,1.25
2023-05-06T20:21:44.835Z,1.27
2023-05-06T20:24:13.922Z,1.30
2023-05-06T20:26:42.344Z,1.15
2023-05-06T20:29:10.789Z,1.20
2023-05-06T20:31:39.471Z,1.50
2023-05-06T20:34:07.893Z,1.30
2023-05-06T20:36:36.411Z,1.20
2023-05-06T20:39:06.335Z,1.48
2023-05-06T20:41:34.788Z,1.20
2023-05-06T20:44:03.343Z,1.23
2023-05-06T20:46:32.975Z,1.20
2023-05-06T20:49:01.594Z,1.38
2023-05-06T20:51:30.143Z,1.20
2023-05-06T20:54:00.851Z,1.20
2023-05-06T20:56:31.310Z,1.13
2023-05-06T20:58:59.798Z,1.30
2023-05-06T21:01:28.430Z,1.33
2023-05-06T21:03:58.826Z,1.40
2023-05-06T21:06:28.133Z,1.30
2023-05-06T21:08:57.998Z,1.13
2023-05-06T21:11:28.927Z,1.30
2023-05-06T21:13:59.006Z,1.30
2023-05-06T21:16:28.060Z,1.40
2023-05-06T21:18:56.815Z,1.20
2023-05-06T21:21:25.603Z,1.20
2023-05-06T21:23:54.091Z,1.30
2023-05-06T21:26:22.630Z,1.27
2023-05-06T21:28:52.095Z,1.20
2023-05-06T21:31:23.372Z,1.20
2023-05-06T21:33:56.186Z,1.15
2023-05-06T21:36:25.060Z,1.13
2023-05-06T21:39:01.674Z,1.20
2023-05-06T21:41:30.125Z,1.10
2023-05-06T21:43:58.598Z,1.20
2023-05-06T21:46:28.490Z,1.20
2023-05-06T21:48:57.229Z,1.10
2023-05-06T21:51:27.768Z,1.20
2023-05-06T21:53:56.413Z,1.20
2023-05-06T21:56:25.531Z,1.23
2023-05-06T21:58:54.682Z,1.10
2023-05-06T22:01:23.469Z,1.30
2023-05-06T22:03:53.757Z,1.15
2023-05-06T22:06:22.965Z,1.10
2023-05-06T22:08:52.096Z,1.10
2023-05-06T22:11:22.690Z,1.20
2023-05-06T22:13:51.187Z,1.20
2023-05-06T22:16:19.755Z,1.13
2023-05-06T22:18:48.383Z,1.10
2023-05-06T22:21:18.527Z,1.00
2023-05-06T22:23:47.212Z,1.00
2023-05-06T22:26:15.800Z,0.90
2023-05-06T22:28:44.356Z,1.30
2023-05-06T22:31:14.028Z,1.10
2023-05-06T22:33:42.651Z,1.17
2023-05-06T22:36:11.269Z,1.85
2023-05-06T22:38:41.273Z,1.30
2023-05-06T22:41:09.776Z,1.13
2023-05-06T22:43:38.376Z,1.10
2023-05-06T22:46:06.924Z,1.10
2023-05-06T22:48:35.488Z,1.15
2023-05-06T22:51:04.513Z,1.13
2023-05-06T22:53:33.401Z,1.20
2023-05-06T22:56:03.438Z,1.20
2023-05-06T22:58:32.128Z,1.23
2023-05-06T23:01:01.806Z,1.27
2023-05-06T23:03:30.475Z,1.35
2023-05-06T23:05:58.991Z,1.33
2023-05-06T23:08:27.828Z,1.10
2023-05-06T23:10:56.393Z,1.30
2023-05-06T23:13:26.602Z,1.50
2023-05-06T23:15:55.360Z,1.50
2023-05-06T23:18:23.914Z,1.35
2023-05-06T23:20:52.449Z,1.25
2023-05-06T23:23:20.982Z,1.30
2023-05-06T23:25:49.394Z,1.20
2023-05-06T23:28:17.988Z,1.30
2023-05-06T23:30:47.860Z,1.20
2023-05-06T23:33:16.454Z,1.35
2023-05-06T23:35:45.429Z,1.40
2023-05-06T23:38:13.942Z,1.20
2023-05-06T23:40:42.433Z,1.45
2023-05-06T23:43:11.393Z,1.25
2023-05-06T23:45:39.827Z,1.23
2023-05-06T23:48:09.785Z,1.40
2023-05-06T23:50:38.313Z,1.40
2023-05-06T23:53:06.816Z,1.35
2023-05-06T23:55:35.853Z,1.30
2023-05-06T23:58:04.434Z,1.40
